sensor_id;sensor_type;location;lat;lon;timestamp;P1;durP1;ratioP1;P2;durP2;ratioP2
42646;SDS011;31319;53.678;-6.254;2022-09-09T00:07:03;7.75;;;4.72;;
42646;SDS011;31319;53.678;-6.254;2022-09-09T00:09:57;8.45;;;4.60;;
42646;SDS011;31319;53.678;-6.254;2022-09-09T00:18:07;8.90;;;5.30;;
42646;SDS011;31319;53.678;-6.254;2022-09-09T00:20:44;8.70;;;4.78;;
42646;SDS011;31319;53.678;-6.254;2022-09-09T00:23:44;7.93;;;4.97;;
42646;SDS011;31319;53.678;-6.254;2022-09-09T00:29:14;10.10;;;4.75;;
42646;SDS011;31319;53.678;-6.254;2022-09-09T00:31:43;6.95;;;5.07;;
42646;SDS011;31319;53.678;-6.254;2022-09-09T00:34:11;9.13;;;5.50;;
42646;SDS011;31319;53.678;-6.254;2022-09-09T00:36:39;8.65;;;4.45;;
42646;SDS011;31319;53.678;-6.254;2022-09-09T00:39:08;7.20;;;5.07;;
42646;SDS011;31319;53.678;-6.254;2022-09-09T00:44:36;7.35;;;4.30;;
42646;SDS011;31319;53.678;-6.254;2022-09-09T00:50:00;6.53;;;3.92;;
42646;SDS011;31319;53.678;-6.254;2022-09-09T00:52:37;6.50;;;3.67;;
42646;SDS011;31319;53.678;-6.254;2022-09-09T00:55:16;6.60;;;4.07;;
42646;SDS011;31319;53.678;-6.254;2022-09-09T00:57:51;8.07;;;4.90;;
42646;SDS011;31319;53.678;-6.254;2022-09-09T01:00:27;6.45;;;3.92;;
42646;SDS011;31319;53.678;-6.254;2022-09-09T01:08:34;9.82;;;4.00;;
42646;SDS011;31319;53.678;-6.254;2022-09-09T01:11:21;7.82;;;3.65;;
42646;SDS011;31319;53.678;-6.254;2022-09-09T01:13:53;8.02;;;4.32;;
42646;SDS011;31319;53.678;-6.254;2022-09-09T01:16:25;8.00;;;4.25;;
42646;SDS011;31319;53.678;-6.254;2022-09-09T01:18:54;5.88;;;3.55;;
42646;SDS011;31319;53.678;-6.254;2022-09-09T01:21:41;7.63;;;4.32;;
42646;SDS011;31319;53.678;-6.254;2022-09-09T01:24:15;11.63;;;4.10;;
42646;SDS011;31319;53.678;-6.254;2022-09-09T01:26:47;8.38;;;3.97;;
42646;SDS011;31319;53.678;-6.254;2022-09-09T01:29:17;8.85;;;4.32;;
42646;SDS011;31319;53.678;-6.254;2022-09-09T01:34:22;8.30;;;4.25;;
42646;SDS011;31319;53.678;-6.254;2022-09-09T01:36:56;9.38;;;4.63;;
42646;SDS011;31319;53.678;-6.254;2022-09-09T01:39:31;6.13;;;3.88;;
42646;SDS011;31319;53.678;-6.254;2022-09-09T01:41:59;9.05;;;4.07;;
42646;SDS011;31319;53.678;-6.254;2022-09-09T01:44:26;8.73;;;3.45;;
42646;SDS011;31319;53.678;-6.254;2022-09-09T01:46:53;8.68;;;4.40;;
42646;SDS011;31319;53.678;-6.254;2022-09-09T01:49:19;5.38;;;3.70;;
42646;SDS011;31319;53.678;-6.254;2022-09-09T01:51:46;6.72;;;3.75;;
42646;SDS011;31319;53.678;-6.254;2022-09-09T01:54:18;5.22;;;3.47;;
42646;SDS011;31319;53.678;-6.254;2022-09-09T01:57:09;5.57;;;3.85;;
42646;SDS011;31319;53.678;-6.254;2022-09-09T02:10:07;12.23;;;4.70;;
42646;SDS011;31319;53.678;-6.254;2022-09-09T02:12:39;6.88;;;3.75;;
42646;SDS011;31319;53.678;-6.254;2022-09-09T02:15:11;8.70;;;3.70;;
42646;SDS011;31319;53.678;-6.254;2022-09-09T02:17:53;8.57;;;3.95;;
42646;SDS011;31319;53.678;-6.254;2022-09-09T02:20:23;7.47;;;4.03;;
42646;SDS011;31319;53.678;-6.254;2022-09-09T02:22:52;9.40;;;4.15;;
42646;SDS011;31319;53.678;-6.254;2022-09-09T02:25:22;10.93;;;4.32;;
42646;SDS011;31319;53.678;-6.254;2022-09-09T02:27:51;8.40;;;4.00;;
42646;SDS011;31319;53.678;-6.254;2022-09-09T02:30:17;7.68;;;3.80;;
42646;SDS011;31319;53.678;-6.254;2022-09-09T02:32:43;7.53;;;3.78;;
42646;SDS011;31319;53.678;-6.254;2022-09-09T02:35:13;5.28;;;3.67;;
42646;SDS011;31319;53.678;-6.254;2022-09-09T02:37:41;7.88;;;4.05;;
42646;SDS011;31319;53.678;-6.254;2022-09-09T02:40:11;7.32;;;4.20;;
42646;SDS011;31319;53.678;-6.254;2022-09-09T02:42:46;9.30;;;4.23;;
42646;SDS011;31319;53.678;-6.254;2022-09-09T02:45:14;17.65;;;4.63;;
42646;SDS011;31319;53.678;-6.254;2022-09-09T02:50:20;13.15;;;5.82;;
42646;SDS011;31319;53.678;-6.254;2022-09-09T02:53:01;8.30;;;4.72;;
42646;SDS011;31319;53.678;-6.254;2022-09-09T02:58:20;11.30;;;4.75;;
42646;SDS011;31319;53.678;-6.254;2022-09-09T03:00:47;9.57;;;4.65;;
42646;SDS011;31319;53.678;-6.254;2022-09-09T03:03:13;8.07;;;4.47;;
42646;SDS011;31319;53.678;-6.254;2022-09-09T03:05:41;9.35;;;4.28;;
42646;SDS011;31319;53.678;-6.254;2022-09-09T03:08:07;5.63;;;4.07;;
42646;SDS011;31319;53.678;-6.254;2022-09-09T03:10:33;9.65;;;4.30;;
42646;SDS011;31319;53.678;-6.254;2022-09-09T03:12:59;6.22;;;4.00;;
42646;SDS011;31319;53.678;-6.254;2022-09-09T03:15:25;7.22;;;3.67;;
42646;SDS011;31319;53.678;-6.254;2022-09-09T03:17:55;7.22;;;4.32;;
42646;SDS011;31319;53.678;-6.254;2022-09-09T03:20:22;9.95;;;4.28;;
42646;SDS011;31319;53.678;-6.254;2022-09-09T03:22:53;6.65;;;3.67;;
42646;SDS011;31319;53.678;-6.254;2022-09-09T03:25:19;4.53;;;3.50;;
42646;SDS011;31319;53.678;-6.254;2022-09-09T03:27:44;7.30;;;3.85;;
42646;SDS011;31319;53.678;-6.254;2022-09-09T03:30:10;7.05;;;3.55;;
42646;SDS011;31319;53.678;-6.254;2022-09-09T03:32:36;5.03;;;3.35;;
42646;SDS011;31319;53.678;-6.254;2022-09-09T03:35:02;6.00;;;3.08;;
42646;SDS011;31319;53.678;-6.254;2022-09-09T03:37:28;6.57;;;3.08;;
42646;SDS011;31319;53.678;-6.254;2022-09-09T03:39:54;6.28;;;2.95;;
42646;SDS011;31319;53.678;-6.254;2022-09-09T03:42:20;6.60;;;3.42;;
42646;SDS011;31319;53.678;-6.254;2022-09-09T03:44:46;5.22;;;3.00;;
42646;SDS011;31319;53.678;-6.254;2022-09-09T03:47:15;4.82;;;2.47;;
42646;SDS011;31319;53.678;-6.254;2022-09-09T03:49:42;8.18;;;3.20;;
42646;SDS011;31319;53.678;-6.254;2022-09-09T03:52:08;7.72;;;3.05;;
42646;SDS011;31319;53.678;-6.254;2022-09-09T03:54:34;5.32;;;2.95;;
42646;SDS011;31319;53.678;-6.254;2022-09-09T03:57:00;5.78;;;2.85;;
42646;SDS011;31319;53.678;-6.254;2022-09-09T03:59:25;5.22;;;2.95;;
42646;SDS011;31319;53.678;-6.254;2022-09-09T04:01:51;3.75;;;2.15;;
42646;SDS011;31319;53.678;-6.254;2022-09-09T04:04:17;5.78;;;2.95;;
42646;SDS011;31319;53.678;-6.254;2022-09-09T04:06:42;5.60;;;2.80;;
42646;SDS011;31319;53.678;-6.254;2022-09-09T04:09:08;6.22;;;2.90;;
42646;SDS011;31319;53.678;-6.254;2022-09-09T04:11:33;6.35;;;2.55;;
42646;SDS011;31319;53.678;-6.254;2022-09-09T04:13:59;9.90;;;3.10;;
42646;SDS011;31319;53.678;-6.254;2022-09-09T04:16:24;6.25;;;3.05;;
42646;SDS011;31319;53.678;-6.254;2022-09-09T04:18:50;6.25;;;2.40;;
42646;SDS011;31319;53.678;-6.254;2022-09-09T04:21:18;10.40;;;3.80;;
42646;SDS011;31319;53.678;-6.254;2022-09-09T04:23:43;6.68;;;2.58;;
42646;SDS011;31319;53.678;-6.254;2022-09-09T04:26:09;5.85;;;2.42;;
42646;SDS011;31319;53.678;-6.254;2022-09-09T04:28:35;4.80;;;2.38;;
42646;SDS011;31319;53.678;-6.254;2022-09-09T04:31:06;5.00;;;2.78;;
42646;SDS011;31319;53.678;-6.254;2022-09-09T04:33:34;6.25;;;2.90;;
42646;SDS011;31319;53.678;-6.254;2022-09-09T04:36:00;7.68;;;3.55;;
42646;SDS011;31319;53.678;-6.254;2022-09-09T04:38:26;5.70;;;2.40;;
42646;SDS011;31319;53.678;-6.254;2022-09-09T04:40:52;7.43;;;2.95;;
42646;SDS011;31319;53.678;-6.254;2022-09-09T04:43:18;4.38;;;2.38;;
42646;SDS011;31319;53.678;-6.254;2022-09-09T04:45:49;4.72;;;2.70;;
42646;SDS011;31319;53.678;-6.254;2022-09-09T04:48:16;7.60;;;2.67;;
42646;SDS011;31319;53.678;-6.254;2022-09-09T04:50:42;7.55;;;2.85;;
42646;SDS011;31319;53.678;-6.254;2022-09-09T04:53:08;7.75;;;3.13;;
42646;SDS011;31319;53.678;-6.254;2022-09-09T04:55:33;6.57;;;2.90;;
42646;SDS011;31319;53.678;-6.254;2022-09-09T04:58:06;6.30;;;3.08;;
42646;SDS011;31319;53.678;-6.254;2022-09-09T05:00:34;5.43;;;2.63;;
42646;SDS011;31319;53.678;-6.254;2022-09-09T05:05:30;8.07;;;3.40;;
42646;SDS011;31319;53.678;-6.254;2022-09-09T05:08:00;6.75;;;3.28;;
42646;SDS011;31319;53.678;-6.254;2022-09-09T05:10:29;5.20;;;3.05;;
42646;SDS011;31319;53.678;-6.254;2022-09-09T05:12:56;8.50;;;3.08;;
42646;SDS011;31319;53.678;-6.254;2022-09-09T05:15:22;5.68;;;3.22;;
42646;SDS011;31319;53.678;-6.254;2022-09-09T05:17:47;5.32;;;3.00;;
42646;SDS011;31319;53.678;-6.254;2022-09-09T05:20:13;6.00;;;2.97;;
42646;SDS011;31319;53.678;-6.254;2022-09-09T05:22:39;5.68;;;3.08;;
42646;SDS011;31319;53.678;-6.254;2022-09-09T05:25:05;6.03;;;3.08;;
42646;SDS011;31319;53.678;-6.254;2022-09-09T05:27:33;4.72;;;3.00;;
42646;SDS011;31319;53.678;-6.254;2022-09-09T05:29:59;5.20;;;3.30;;
42646;SDS011;31319;53.678;-6.254;2022-09-09T05:32:24;5.53;;;3.00;;
42646;SDS011;31319;53.678;-6.254;2022-09-09T05:34:50;7.68;;;2.83;;
42646;SDS011;31319;53.678;-6.254;2022-09-09T05:37:17;6.70;;;2.80;;
42646;SDS011;31319;53.678;-6.254;2022-09-09T05:39:43;10.98;;;3.50;;
42646;SDS011;31319;53.678;-6.254;2022-09-09T05:42:09;3.67;;;2.30;;
42646;SDS011;31319;53.678;-6.254;2022-09-09T05:44:35;9.38;;;2.63;;
42646;SDS011;31319;53.678;-6.254;2022-09-09T05:47:01;6.28;;;2.38;;
42646;SDS011;31319;53.678;-6.254;2022-09-09T05:49:27;5.10;;;2.63;;
42646;SDS011;31319;53.678;-6.254;2022-09-09T05:51:53;4.45;;;2.25;;
42646;SDS011;31319;53.678;-6.254;2022-09-09T05:54:19;5.28;;;2.78;;
42646;SDS011;31319;53.678;-6.254;2022-09-09T05:56:44;4.78;;;2.53;;
42646;SDS011;31319;53.678;-6.254;2022-09-09T05:59:10;5.22;;;2.70;;
42646;SDS011;31319;53.678;-6.254;2022-09-09T06:01:36;5.00;;;2.53;;
42646;SDS011;31319;53.678;-6.254;2022-09-09T06:04:05;3.53;;;2.63;;
42646;SDS011;31319;53.678;-6.254;2022-09-09T06:06:32;9.02;;;2.47;;
42646;SDS011;31319;53.678;-6.254;2022-09-09T06:09:04;5.32;;;2.33;;
42646;SDS011;31319;53.678;-6.254;2022-09-09T06:11:34;5.65;;;2.35;;
42646;SDS011;31319;53.678;-6.254;2022-09-09T06:14:01;7.45;;;2.35;;
42646;SDS011;31319;53.678;-6.254;2022-09-09T06:16:27;5.70;;;2.38;;
42646;SDS011;31319;53.678;-6.254;2022-09-09T06:18:54;3.75;;;2.20;;
42646;SDS011;31319;53.678;-6.254;2022-09-09T06:21:25;4.55;;;2.47;;
42646;SDS011;31319;53.678;-6.254;2022-09-09T06:23:55;3.42;;;2.28;;
42646;SDS011;31319;53.678;-6.254;2022-09-09T06:26:25;3.30;;;2.40;;
42646;SDS011;31319;53.678;-6.254;2022-09-09T06:29:02;4.22;;;2.35;;
42646;SDS011;31319;53.678;-6.254;2022-09-09T06:31:29;8.40;;;2.67;;
42646;SDS011;31319;53.678;-6.254;2022-09-09T06:33:57;4.50;;;2.85;;
42646;SDS011;31319;53.678;-6.254;2022-09-09T06:36:34;7.22;;;3.10;;
42646;SDS011;31319;53.678;-6.254;2022-09-09T06:39:02;5.22;;;2.85;;
42646;SDS011;31319;53.678;-6.254;2022-09-09T06:41:29;6.30;;;3.42;;
42646;SDS011;31319;53.678;-6.254;2022-09-09T06:43:55;4.78;;;2.83;;
42646;SDS011;31319;53.678;-6.254;2022-09-09T06:46:22;7.60;;;3.40;;
42646;SDS011;31319;53.678;-6.254;2022-09-09T06:48:53;3.67;;;2.92;;
42646;SDS011;31319;53.678;-6.254;2022-09-09T06:51:21;4.45;;;2.63;;
42646;SDS011;31319;53.678;-6.254;2022-09-09T06:53:52;4.75;;;3.03;;
42646;SDS011;31319;53.678;-6.254;2022-09-09T06:56:21;5.68;;;3.10;;
42646;SDS011;31319;53.678;-6.254;2022-09-09T06:58:56;4.97;;;2.90;;
42646;SDS011;31319;53.678;-6.254;2022-09-09T07:01:30;6.15;;;3.25;;
42646;SDS011;31319;53.678;-6.254;2022-09-09T07:03:58;8.35;;;3.70;;
42646;SDS011;31319;53.678;-6.254;2022-09-09T07:06:28;6.88;;;3.33;;
42646;SDS011;31319;53.678;-6.254;2022-09-09T07:08:56;5.57;;;3.10;;
42646;SDS011;31319;53.678;-6.254;2022-09-09T07:11:27;5.82;;;3.58;;
42646;SDS011;31319;53.678;-6.254;2022-09-09T07:13:54;5.70;;;3.50;;
42646;SDS011;31319;53.678;-6.254;2022-09-09T07:16:23;3.75;;;2.95;;
42646;SDS011;31319;53.678;-6.254;2022-09-09T07:18:49;6.38;;;3.25;;
42646;SDS011;31319;53.678;-6.254;2022-09-09T07:21:16;9.52;;;3.55;;
42646;SDS011;31319;53.678;-6.254;2022-09-09T07:23:42;7.22;;;3.55;;
42646;SDS011;31319;53.678;-6.254;2022-09-09T07:26:13;4.82;;;2.80;;
42646;SDS011;31319;53.678;-6.254;2022-09-09T07:28:41;6.97;;;3.25;;
42646;SDS011;31319;53.678;-6.254;2022-09-09T07:31:07;3.83;;;2.05;;
42646;SDS011;31319;53.678;-6.254;2022-09-09T07:33:41;4.88;;;2.50;;
42646;SDS011;31319;53.678;-6.254;2022-09-09T07:36:08;9.45;;;2.97;;
42646;SDS011;31319;53.678;-6.254;2022-09-09T07:38:41;4.65;;;2.38;;
42646;SDS011;31319;53.678;-6.254;2022-09-09T07:41:10;6.60;;;2.25;;
42646;SDS011;31319;53.678;-6.254;2022-09-09T07:43:39;6.43;;;2.28;;
42646;SDS011;31319;53.678;-6.254;2022-09-09T07:46:05;5.70;;;2.22;;
42646;SDS011;31319;53.678;-6.254;2022-09-09T07:48:31;5.63;;;2.38;;
42646;SDS011;31319;53.678;-6.254;2022-09-09T07:51:04;3.30;;;2.00;;
42646;SDS011;31319;53.678;-6.254;2022-09-09T07:53:31;5.28;;;2.25;;
42646;SDS011;31319;53.678;-6.254;2022-09-09T07:56:18;5.88;;;2.65;;
42646;SDS011;31319;53.678;-6.254;2022-09-09T07:58:46;4.70;;;2.58;;
42646;SDS011;31319;53.678;-6.254;2022-09-09T08:01:16;5.80;;;2.85;;
42646;SDS011;31319;53.678;-6.254;2022-09-09T08:03:54;7.93;;;3.20;;
42646;SDS011;31319;53.678;-6.254;2022-09-09T08:06:20;10.27;;;3.20;;
42646;SDS011;31319;53.678;-6.254;2022-09-09T08:08:49;9.82;;;4.00;;
42646;SDS011;31319;53.678;-6.254;2022-09-09T08:11:15;4.30;;;3.30;;
42646;SDS011;31319;53.678;-6.254;2022-09-09T08:13:42;7.93;;;3.38;;
42646;SDS011;31319;53.678;-6.254;2022-09-09T08:18:42;6.97;;;4.47;;
42646;SDS011;31319;53.678;-6.254;2022-09-09T08:21:11;8.63;;;4.55;;
42646;SDS011;31319;53.678;-6.254;2022-09-09T08:23:39;7.78;;;4.13;;
42646;SDS011;31319;53.678;-6.254;2022-09-09T08:26:13;8.55;;;4.78;;
42646;SDS011;31319;53.678;-6.254;2022-09-09T08:28:39;9.65;;;4.70;;
42646;SDS011;31319;53.678;-6.254;2022-09-09T08:31:10;15.48;;;4.88;;
42646;SDS011;31319;53.678;-6.254;2022-09-09T08:33:37;10.80;;;4.80;;
42646;SDS011;31319;53.678;-6.254;2022-09-09T08:36:04;7.75;;;3.78;;
42646;SDS011;31319;53.678;-6.254;2022-09-09T08:38:32;9.70;;;3.40;;
42646;SDS011;31319;53.678;-6.254;2022-09-09T08:41:03;7.75;;;3.22;;
42646;SDS011;31319;53.678;-6.254;2022-09-09T08:43:35;12.32;;;4.78;;
42646;SDS011;31319;53.678;-6.254;2022-09-09T08:46:07;7.03;;;4.22;;
42646;SDS011;31319;53.678;-6.254;2022-09-09T08:51:08;8.60;;;3.72;;
42646;SDS011;31319;53.678;-6.254;2022-09-09T08:53:38;7.75;;;4.32;;
42646;SDS011;31319;53.678;-6.254;2022-09-09T08:56:10;5.85;;;3.70;;
42646;SDS011;31319;53.678;-6.254;2022-09-09T08:58:45;6.78;;;3.88;;
42646;SDS011;31319;53.678;-6.254;2022-09-09T09:07:16;9.57;;;3.85;;
42646;SDS011;31319;53.678;-6.254;2022-09-09T09:12:29;5.28;;;3.22;;
42646;SDS011;31319;53.678;-6.254;2022-09-09T09:15:00;4.70;;;2.67;;
42646;SDS011;31319;53.678;-6.254;2022-09-09T09:17:26;7.32;;;2.67;;
42646;SDS011;31319;53.678;-6.254;2022-09-09T09:19:56;4.22;;;2.70;;
42646;SDS011;31319;53.678;-6.254;2022-09-09T09:25:13;9.38;;;3.22;;
42646;SDS011;31319;53.678;-6.254;2022-09-09T09:27:55;7.25;;;2.65;;
42646;SDS011;31319;53.678;-6.254;2022-09-09T09:30:25;4.90;;;2.97;;
42646;SDS011;31319;53.678;-6.254;2022-09-09T09:33:28;4.47;;;2.92;;
42646;SDS011;31319;53.678;-6.254;2022-09-09T09:35:49;4.68;;;2.40;;
42646;SDS011;31319;53.678;-6.254;2022-09-09T09:38:19;4.10;;;2.15;;
42646;SDS011;31319;53.678;-6.254;2022-09-09T09:41:05;5.07;;;3.00;;
42646;SDS011;31319;53.678;-6.254;2022-09-09T09:43:32;4.05;;;2.60;;
42646;SDS011;31319;53.678;-6.254;2022-09-09T09:45:59;5.18;;;2.35;;
42646;SDS011;31319;53.678;-6.254;2022-09-09T09:48:26;4.57;;;2.20;;
42646;SDS011;31319;53.678;-6.254;2022-09-09T09:53:36;3.30;;;2.30;;
42646;SDS011;31319;53.678;-6.254;2022-09-09T09:58:52;4.00;;;2.65;;
42646;SDS011;31319;53.678;-6.254;2022-09-09T10:01:29;5.43;;;2.92;;
42646;SDS011;31319;53.678;-6.254;2022-09-09T10:04:02;6.87;;;2.93;;
42646;SDS011;31319;53.678;-6.254;2022-09-09T10:06:40;5.82;;;3.35;;
42646;SDS011;31319;53.678;-6.254;2022-09-09T10:09:25;4.45;;;3.22;;
42646;SDS011;31319;53.678;-6.254;2022-09-09T10:12:07;4.22;;;2.90;;
42646;SDS011;31319;53.678;-6.254;2022-09-09T10:15:02;3.08;;;2.13;;
42646;SDS011;31319;53.678;-6.254;2022-09-09T10:23:21;2.90;;;1.80;;
42646;SDS011;31319;53.678;-6.254;2022-09-09T10:26:02;3.85;;;1.95;;
42646;SDS011;31319;53.678;-6.254;2022-09-09T10:35:35;3.30;;;1.80;;
42646;SDS011;31319;53.678;-6.254;2022-09-09T10:40:46;7.00;;;1.98;;
42646;SDS011;31319;53.678;-6.254;2022-09-09T10:54:53;4.75;;;2.63;;
42646;SDS011;31319;53.678;-6.254;2022-09-09T10:57:29;4.38;;;2.10;;
42646;SDS011;31319;53.678;-6.254;2022-09-09T11:00:05;4.40;;;2.15;;
42646;SDS011;31319;53.678;-6.254;2022-09-09T11:02:39;4.53;;;2.17;;
42646;SDS011;31319;53.678;-6.254;2022-09-09T11:06:09;5.03;;;2.20;;
42646;SDS011;31319;53.678;-6.254;2022-09-09T11:11:03;2.90;;;1.77;;
42646;SDS011;31319;53.678;-6.254;2022-09-09T11:16:25;4.93;;;2.53;;
42646;SDS011;31319;53.678;-6.254;2022-09-09T11:19:10;4.47;;;2.22;;
42646;SDS011;31319;53.678;-6.254;2022-09-09T11:21:46;5.68;;;2.42;;
42646;SDS011;31319;53.678;-6.254;2022-09-09T11:24:23;5.53;;;2.40;;
42646;SDS011;31319;53.678;-6.254;2022-09-09T11:32:29;4.50;;;2.33;;
42646;SDS011;31319;53.678;-6.254;2022-09-09T11:40:30;4.63;;;2.10;;
42646;SDS011;31319;53.678;-6.254;2022-09-09T11:45:37;9.07;;;2.90;;
42646;SDS011;31319;53.678;-6.254;2022-09-09T11:48:21;2.72;;;1.85;;
42646;SDS011;31319;53.678;-6.254;2022-09-09T11:50:57;6.97;;;2.50;;
42646;SDS011;31319;53.678;-6.254;2022-09-09T11:53:24;4.30;;;2.72;;
42646;SDS011;31319;53.678;-6.254;2022-09-09T11:56:09;4.70;;;2.20;;
42646;SDS011;31319;53.678;-6.254;2022-09-09T11:58:39;4.70;;;2.47;;
42646;SDS011;31319;53.678;-6.254;2022-09-09T12:04:01;5.28;;;2.70;;
42646;SDS011;31319;53.678;-6.254;2022-09-09T12:06:31;7.03;;;2.50;;
42646;SDS011;31319;53.678;-6.254;2022-09-09T12:09:05;5.32;;;2.60;;
42646;SDS011;31319;53.678;-6.254;2022-09-09T12:11:34;9.52;;;2.45;;
42646;SDS011;31319;53.678;-6.254;2022-09-09T12:14:00;11.18;;;3.45;;
42646;SDS011;31319;53.678;-6.254;2022-09-09T12:16:33;3.85;;;2.63;;
42646;SDS011;31319;53.678;-6.254;2022-09-09T12:19:04;4.80;;;2.10;;
42646;SDS011;31319;53.678;-6.254;2022-09-09T12:21:44;7.30;;;2.45;;
42646;SDS011;31319;53.678;-6.254;2022-09-09T12:24:13;6.78;;;2.60;;
42646;SDS011;31319;53.678;-6.254;2022-09-09T12:26:58;3.30;;;2.10;;
42646;SDS011;31319;53.678;-6.254;2022-09-09T12:32:36;5.18;;;2.08;;
42646;SDS011;31319;53.678;-6.254;2022-09-09T12:35:04;3.38;;;2.10;;
42646;SDS011;31319;53.678;-6.254;2022-09-09T12:37:56;5.50;;;2.08;;
42646;SDS011;31319;53.678;-6.254;2022-09-09T12:40:27;4.55;;;1.90;;
42646;SDS011;31319;53.678;-6.254;2022-09-09T12:42:54;6.18;;;1.90;;
42646;SDS011;31319;53.678;-6.254;2022-09-09T12:45:27;5.22;;;2.03;;
42646;SDS011;31319;53.678;-6.254;2022-09-09T12:50:33;4.70;;;2.50;;
42646;SDS011;31319;53.678;-6.254;2022-09-09T12:53:03;4.97;;;2.35;;
42646;SDS011;31319;53.678;-6.254;2022-09-09T12:55:35;7.15;;;2.47;;
42646;SDS011;31319;53.678;-6.254;2022-09-09T12:58:04;13.73;;;3.05;;
42646;SDS011;31319;53.678;-6.254;2022-09-09T13:00:31;4.07;;;2.45;;
42646;SDS011;31319;53.678;-6.254;2022-09-09T13:02:58;4.25;;;2.65;;
42646;SDS011;31319;53.678;-6.254;2022-09-09T13:08:14;4.00;;;1.98;;
42646;SDS011;31319;53.678;-6.254;2022-09-09T13:10:40;3.55;;;1.90;;
42646;SDS011;31319;53.678;-6.254;2022-09-09T13:13:22;6.20;;;2.15;;
42646;SDS011;31319;53.678;-6.254;2022-09-09T13:15:56;4.25;;;2.00;;
42646;SDS011;31319;53.678;-6.254;2022-09-09T13:18:28;5.35;;;1.77;;
42646;SDS011;31319;53.678;-6.254;2022-09-09T13:20:55;5.70;;;2.28;;
42646;SDS011;31319;53.678;-6.254;2022-09-09T13:23:32;9.07;;;2.50;;
42646;SDS011;31319;53.678;-6.254;2022-09-09T13:26:04;3.03;;;1.38;;
42646;SDS011;31319;53.678;-6.254;2022-09-09T13:28:48;6.28;;;1.70;;
42646;SDS011;31319;53.678;-6.254;2022-09-09T13:34:13;3.10;;;1.65;;
42646;SDS011;31319;53.678;-6.254;2022-09-09T13:36:59;5.97;;;1.75;;
42646;SDS011;31319;53.678;-6.254;2022-09-09T13:39:36;2.95;;;1.70;;
42646;SDS011;31319;53.678;-6.254;2022-09-09T13:42:02;3.45;;;1.95;;
42646;SDS011;31319;53.678;-6.254;2022-09-09T13:44:34;4.90;;;1.23;;
42646;SDS011;31319;53.678;-6.254;2022-09-09T13:49:48;3.63;;;1.73;;
42646;SDS011;31319;53.678;-6.254;2022-09-09T13:52:15;0.90;;;0.85;;
42646;SDS011;31319;53.678;-6.254;2022-09-09T13:54:43;2.47;;;1.30;;
42646;SDS011;31319;53.678;-6.254;2022-09-09T13:57:19;4.05;;;1.27;;
42646;SDS011;31319;53.678;-6.254;2022-09-09T13:59:50;2.50;;;1.50;;
42646;SDS011;31319;53.678;-6.254;2022-09-09T14:02:17;3.38;;;1.20;;
42646;SDS011;31319;53.678;-6.254;2022-09-09T14:04:44;4.15;;;1.60;;
42646;SDS011;31319;53.678;-6.254;2022-09-09T14:07:13;6.18;;;2.03;;
42646;SDS011;31319;53.678;-6.254;2022-09-09T14:09:41;3.08;;;1.40;;
42646;SDS011;31319;53.678;-6.254;2022-09-09T14:12:13;2.83;;;1.58;;
42646;SDS011;31319;53.678;-6.254;2022-09-09T14:14:40;5.68;;;1.30;;
42646;SDS011;31319;53.678;-6.254;2022-09-09T14:17:08;4.68;;;1.42;;
42646;SDS011;31319;53.678;-6.254;2022-09-09T14:19:35;1.92;;;1.40;;
42646;SDS011;31319;53.678;-6.254;2022-09-09T14:22:02;2.75;;;1.27;;
42646;SDS011;31319;53.678;-6.254;2022-09-09T14:24:29;7.88;;;2.03;;
42646;SDS011;31319;53.678;-6.254;2022-09-09T14:26:54;3.03;;;1.55;;
42646;SDS011;31319;53.678;-6.254;2022-09-09T14:29:21;6.70;;;2.35;;
42646;SDS011;31319;53.678;-6.254;2022-09-09T14:31:46;4.30;;;1.85;;
42646;SDS011;31319;53.678;-6.254;2022-09-09T14:34:13;7.72;;;2.17;;
42646;SDS011;31319;53.678;-6.254;2022-09-09T14:36:39;6.10;;;1.60;;
42646;SDS011;31319;53.678;-6.254;2022-09-09T14:39:07;3.90;;;1.73;;
42646;SDS011;31319;53.678;-6.254;2022-09-09T14:41:33;15.93;;;2.80;;
42646;SDS011;31319;53.678;-6.254;2022-09-09T14:43:59;4.00;;;1.70;;
42646;SDS011;31319;53.678;-6.254;2022-09-09T14:46:25;1.75;;;1.10;;
42646;SDS011;31319;53.678;-6.254;2022-09-09T14:48:51;5.85;;;1.48;;
42646;SDS011;31319;53.678;-6.254;2022-09-09T14:51:18;5.75;;;2.03;;
42646;SDS011;31319;53.678;-6.254;2022-09-09T14:53:47;3.28;;;1.42;;
42646;SDS011;31319;53.678;-6.254;2022-09-09T14:56:15;7.32;;;1.65;;
42646;SDS011;31319;53.678;-6.254;2022-09-09T14:58:42;5.50;;;1.58;;
42646;SDS011;31319;53.678;-6.254;2022-09-09T15:01:09;8.05;;;1.95;;
42646;SDS011;31319;53.678;-6.254;2022-09-09T15:03:37;3.97;;;1.48;;
42646;SDS011;31319;53.678;-6.254;2022-09-09T15:06:07;3.95;;;1.60;;
42646;SDS011;31319;53.678;-6.254;2022-09-09T15:08:35;2.83;;;1.02;;
42646;SDS011;31319;53.678;-6.254;2022-09-09T15:11:02;5.80;;;1.50;;
42646;SDS011;31319;53.678;-6.254;2022-09-09T15:13:29;2.65;;;1.48;;
42646;SDS011;31319;53.678;-6.254;2022-09-09T15:15:55;3.05;;;1.15;;
42646;SDS011;31319;53.678;-6.254;2022-09-09T15:18:22;2.10;;;1.17;;
42646;SDS011;31319;53.678;-6.254;2022-09-09T15:20:48;4.78;;;1.60;;
42646;SDS011;31319;53.678;-6.254;2022-09-09T15:23:14;4.93;;;1.70;;
42646;SDS011;31319;53.678;-6.254;2022-09-09T15:25:51;4.28;;;1.48;;
42646;SDS011;31319;53.678;-6.254;2022-09-09T15:28:18;2.80;;;1.10;;
42646;SDS011;31319;53.678;-6.254;2022-09-09T15:30:43;8.18;;;1.70;;
42646;SDS011;31319;53.678;-6.254;2022-09-09T15:33:12;1.67;;;0.95;;
42646;SDS011;31319;53.678;-6.254;2022-09-09T15:35:38;2.58;;;1.20;;
42646;SDS011;31319;53.678;-6.254;2022-09-09T15:38:06;4.65;;;1.38;;
42646;SDS011;31319;53.678;-6.254;2022-09-09T15:40:32;2.80;;;1.25;;
42646;SDS011;31319;53.678;-6.254;2022-09-09T15:42:58;1.45;;;0.98;;
42646;SDS011;31319;53.678;-6.254;2022-09-09T15:45:24;3.63;;;1.00;;
42646;SDS011;31319;53.678;-6.254;2022-09-09T15:47:50;3.45;;;1.48;;
42646;SDS011;31319;53.678;-6.254;2022-09-09T15:50:15;3.03;;;1.15;;
42646;SDS011;31319;53.678;-6.254;2022-09-09T15:52:41;4.47;;;1.45;;
42646;SDS011;31319;53.678;-6.254;2022-09-09T15:55:07;3.80;;;1.55;;
42646;SDS011;31319;53.678;-6.254;2022-09-09T15:57:33;3.35;;;1.50;;
42646;SDS011;31319;53.678;-6.254;2022-09-09T15:59:59;3.95;;;1.23;;
42646;SDS011;31319;53.678;-6.254;2022-09-09T16:02:26;2.55;;;1.02;;
42646;SDS011;31319;53.678;-6.254;2022-09-09T16:04:52;4.25;;;1.42;;
42646;SDS011;31319;53.678;-6.254;2022-09-09T16:07:17;3.17;;;1.45;;
42646;SDS011;31319;53.678;-6.254;2022-09-09T16:09:43;2.90;;;1.00;;
42646;SDS011;31319;53.678;-6.254;2022-09-09T16:12:08;5.10;;;1.63;;
42646;SDS011;31319;53.678;-6.254;2022-09-09T16:14:36;4.50;;;1.33;;
42646;SDS011;31319;53.678;-6.254;2022-09-09T16:17:04;5.90;;;1.38;;
42646;SDS011;31319;53.678;-6.254;2022-09-09T16:19:32;9.05;;;1.85;;
42646;SDS011;31319;53.678;-6.254;2022-09-09T16:21:59;6.80;;;1.33;;
42646;SDS011;31319;53.678;-6.254;2022-09-09T16:24:25;6.80;;;1.67;;
42646;SDS011;31319;53.678;-6.254;2022-09-09T16:26:52;6.78;;;1.50;;
42646;SDS011;31319;53.678;-6.254;2022-09-09T16:29:19;6.10;;;1.58;;
42646;SDS011;31319;53.678;-6.254;2022-09-09T16:31:47;3.40;;;2.03;;
42646;SDS011;31319;53.678;-6.254;2022-09-09T16:34:14;3.75;;;1.30;;
42646;SDS011;31319;53.678;-6.254;2022-09-09T16:36:42;6.50;;;1.83;;
42646;SDS011;31319;53.678;-6.254;2022-09-09T16:39:16;1.77;;;1.25;;
42646;SDS011;31319;53.678;-6.254;2022-09-09T16:41:43;2.90;;;1.65;;
42646;SDS011;31319;53.678;-6.254;2022-09-09T16:44:10;3.88;;;1.20;;
42646;SDS011;31319;53.678;-6.254;2022-09-09T16:46:38;7.55;;;2.15;;
42646;SDS011;31319;53.678;-6.254;2022-09-09T16:49:07;8.82;;;2.00;;
42646;SDS011;31319;53.678;-6.254;2022-09-09T16:51:38;9.98;;;1.52;;
42646;SDS011;31319;53.678;-6.254;2022-09-09T16:54:07;5.53;;;1.42;;
42646;SDS011;31319;53.678;-6.254;2022-09-09T16:56:38;2.17;;;0.80;;
42646;SDS011;31319;53.678;-6.254;2022-09-09T16:59:09;3.67;;;0.82;;
42646;SDS011;31319;53.678;-6.254;2022-09-09T17:01:39;4.82;;;1.02;;